sensor_id;sensor_type;location;lat;lon;timestamp;P1;durP1;ratioP1;P2;durP2;ratioP2
9270;SDS011;4673;53.458;9.940;2023-02-18T00:02:07;5.17;;;5.07;;
9270;SDS011;4673;53.458;9.940;2023-02-18T00:04:32;4.10;;;4.00;;
9270;SDS011;4673;53.458;9.940;2023-02-18T00:06:58;5.03;;;4.93;;
9270;SDS011;4673;53.458;9.940;2023-02-18T00:09:24;3.80;;;3.70;;
9270;SDS011;4673;53.458;9.940;2023-02-18T00:11:50;3.50;;;3.40;;
9270;SDS011;4673;53.458;9.940;2023-02-18T00:14:16;3.03;;;3.03;;
9270;SDS011;4673;53.458;9.940;2023-02-18T00:16:42;4.07;;;3.97;;
9270;SDS011;4673;53.458;9.940;2023-02-18T00:19:12;2.83;;;2.83;;
9270;SDS011;4673;53.458;9.940;2023-02-18T00:21:40;3.30;;;3.30;;
9270;SDS011;4673;53.458;9.940;2023-02-18T00:24:06;3.17;;;3.07;;
9270;SDS011;4673;53.458;9.940;2023-02-18T00:26:33;3.30;;;3.23;;
9270;SDS011;4673;53.458;9.940;2023-02-18T00:28:59;4.03;;;3.93;;
9270;SDS011;4673;53.458;9.940;2023-02-18T00:31:27;3.27;;;3.17;;
9270;SDS011;4673;53.458;9.940;2023-02-18T00:33:57;3.27;;;3.27;;
9270;SDS011;4673;53.458;9.940;2023-02-18T00:36:24;3.63;;;3.53;;
9270;SDS011;4673;53.458;9.940;2023-02-18T00:38:51;3.73;;;3.70;;
9270;SDS011;4673;53.458;9.940;2023-02-18T00:41:26;4.23;;;4.13;;
9270;SDS011;4673;53.458;9.940;2023-02-18T00:43:53;2.80;;;2.70;;
9270;SDS011;4673;53.458;9.940;2023-02-18T00:46:19;3.83;;;3.73;;
9270;SDS011;4673;53.458;9.940;2023-02-18T00:48:45;3.87;;;3.77;;
9270;SDS011;4673;53.458;9.940;2023-02-18T00:51:11;3.80;;;3.80;;
9270;SDS011;4673;53.458;9.940;2023-02-18T00:53:37;3.93;;;3.83;;
9270;SDS011;4673;53.458;9.940;2023-02-18T00:56:04;3.80;;;3.70;;
9270;SDS011;4673;53.458;9.940;2023-02-18T00:58:30;3.23;;;3.23;;
9270;SDS011;4673;53.458;9.940;2023-02-18T01:00:58;4.37;;;4.27;;
9270;SDS011;4673;53.458;9.940;2023-02-18T01:03:24;3.80;;;3.80;;
9270;SDS011;4673;53.458;9.940;2023-02-18T01:05:50;3.60;;;3.60;;
9270;SDS011;4673;53.458;9.940;2023-02-18T01:08:17;3.40;;;3.30;;
9270;SDS011;4673;53.458;9.940;2023-02-18T01:10:44;2.57;;;2.57;;
9270;SDS011;4673;53.458;9.940;2023-02-18T01:13:11;3.33;;;3.23;;
9270;SDS011;4673;53.458;9.940;2023-02-18T01:15:38;4.03;;;3.93;;
9270;SDS011;4673;53.458;9.940;2023-02-18T01:18:05;3.50;;;3.40;;
9270;SDS011;4673;53.458;9.940;2023-02-18T01:20:32;3.63;;;3.57;;
9270;SDS011;4673;53.458;9.940;2023-02-18T01:22:58;3.87;;;3.77;;
9270;SDS011;4673;53.458;9.940;2023-02-18T01:25:24;2.63;;;2.63;;
9270;SDS011;4673;53.458;9.940;2023-02-18T01:27:49;3.30;;;3.27;;
9270;SDS011;4673;53.458;9.940;2023-02-18T01:30:16;3.33;;;3.23;;
9270;SDS011;4673;53.458;9.940;2023-02-18T01:32:42;3.53;;;3.53;;
9270;SDS011;4673;53.458;9.940;2023-02-18T01:35:12;3.10;;;3.10;;
9270;SDS011;4673;53.458;9.940;2023-02-18T01:37:39;3.33;;;3.30;;
9270;SDS011;4673;53.458;9.940;2023-02-18T01:40:05;4.23;;;4.17;;
9270;SDS011;4673;53.458;9.940;2023-02-18T01:42:32;3.17;;;3.17;;
9270;SDS011;4673;53.458;9.940;2023-02-18T01:48:02;2.27;;;2.27;;
9270;SDS011;4673;53.458;9.940;2023-02-18T01:50:34;2.90;;;2.80;;
9270;SDS011;4673;53.458;9.940;2023-02-18T01:53:02;2.50;;;2.50;;
9270;SDS011;4673;53.458;9.940;2023-02-18T01:55:28;3.40;;;3.30;;
9270;SDS011;4673;53.458;9.940;2023-02-18T01:57:54;3.70;;;3.60;;
9270;SDS011;4673;53.458;9.940;2023-02-18T02:00:20;3.07;;;3.07;;
9270;SDS011;4673;53.458;9.940;2023-02-18T02:02:46;2.83;;;2.83;;
9270;SDS011;4673;53.458;9.940;2023-02-18T02:05:13;2.80;;;2.80;;
9270;SDS011;4673;53.458;9.940;2023-02-18T02:07:40;4.37;;;4.27;;
9270;SDS011;4673;53.458;9.940;2023-02-18T02:10:07;4.33;;;4.23;;
9270;SDS011;4673;53.458;9.940;2023-02-18T02:15:43;2.97;;;2.97;;
9270;SDS011;4673;53.458;9.940;2023-02-18T02:32:31;2.80;;;2.80;;
9270;SDS011;4673;53.458;9.940;2023-02-18T02:35:48;3.13;;;3.13;;
9270;SDS011;4673;53.458;9.940;2023-02-18T02:38:38;3.97;;;3.90;;
9270;SDS011;4673;53.458;9.940;2023-02-18T02:47:06;2.60;;;2.60;;
9270;SDS011;4673;53.458;9.940;2023-02-18T02:52:18;3.03;;;2.93;;
9270;SDS011;4673;53.458;9.940;2023-02-18T02:54:49;2.40;;;2.40;;
9270;SDS011;4673;53.458;9.940;2023-02-18T02:59:43;4.33;;;4.23;;
9270;SDS011;4673;53.458;9.940;2023-02-18T03:10:51;3.47;;;3.37;;
9270;SDS011;4673;53.458;9.940;2023-02-18T03:21:25;2.77;;;2.77;;
9270;SDS011;4673;53.458;9.940;2023-02-18T03:26:31;2.70;;;2.70;;
9270;SDS011;4673;53.458;9.940;2023-02-18T03:29:01;3.37;;;3.37;;
9270;SDS011;4673;53.458;9.940;2023-02-18T03:31:29;3.07;;;3.07;;
9270;SDS011;4673;53.458;9.940;2023-02-18T03:33:58;3.70;;;3.60;;
9270;SDS011;4673;53.458;9.940;2023-02-18T03:36:32;2.67;;;2.67;;
9270;SDS011;4673;53.458;9.940;2023-02-18T03:39:15;3.13;;;3.13;;
9270;SDS011;4673;53.458;9.940;2023-02-18T03:41:43;3.33;;;3.33;;
9270;SDS011;4673;53.458;9.940;2023-02-18T03:44:09;2.93;;;2.93;;
9270;SDS011;4673;53.458;9.940;2023-02-18T03:46:36;2.57;;;2.57;;
9270;SDS011;4673;53.458;9.940;2023-02-18T03:49:04;3.07;;;2.97;;
9270;SDS011;4673;53.458;9.940;2023-02-18T03:51:30;2.10;;;2.10;;
9270;SDS011;4673;53.458;9.940;2023-02-18T03:53:55;2.60;;;2.60;;
9270;SDS011;4673;53.458;9.940;2023-02-18T03:56:21;3.53;;;3.53;;
9270;SDS011;4673;53.458;9.940;2023-02-18T03:58:47;2.43;;;2.43;;
9270;SDS011;4673;53.458;9.940;2023-02-18T04:01:13;3.03;;;3.03;;
9270;SDS011;4673;53.458;9.940;2023-02-18T04:03:39;3.03;;;3.03;;
9270;SDS011;4673;53.458;9.940;2023-02-18T04:06:05;3.23;;;3.23;;
9270;SDS011;4673;53.458;9.940;2023-02-18T04:08:31;2.33;;;2.33;;
9270;SDS011;4673;53.458;9.940;2023-02-18T04:10:56;2.33;;;2.33;;
9270;SDS011;4673;53.458;9.940;2023-02-18T04:13:22;2.87;;;2.87;;
9270;SDS011;4673;53.458;9.940;2023-02-18T04:15:48;2.27;;;2.27;;
9270;SDS011;4673;53.458;9.940;2023-02-18T04:18:14;3.00;;;3.00;;
9270;SDS011;4673;53.458;9.940;2023-02-18T04:20:40;3.23;;;3.23;;
9270;SDS011;4673;53.458;9.940;2023-02-18T04:23:05;3.13;;;3.13;;
9270;SDS011;4673;53.458;9.940;2023-02-18T04:25:31;1.93;;;1.93;;
9270;SDS011;4673;53.458;9.940;2023-02-18T04:27:57;2.40;;;2.40;;
9270;SDS011;4673;53.458;9.940;2023-02-18T04:30:23;2.37;;;2.37;;
9270;SDS011;4673;53.458;9.940;2023-02-18T04:32:49;2.33;;;2.33;;
9270;SDS011;4673;53.458;9.940;2023-02-18T04:35:14;2.33;;;2.23;;
9270;SDS011;4673;53.458;9.940;2023-02-18T04:37:40;2.13;;;2.13;;
9270;SDS011;4673;53.458;9.940;2023-02-18T04:40:06;2.27;;;2.27;;
9270;SDS011;4673;53.458;9.940;2023-02-18T04:42:33;1.80;;;1.80;;
9270;SDS011;4673;53.458;9.940;2023-02-18T04:44:59;2.33;;;2.33;;
9270;SDS011;4673;53.458;9.940;2023-02-18T04:47:24;2.03;;;2.03;;
9270;SDS011;4673;53.458;9.940;2023-02-18T04:49:50;2.70;;;2.70;;
9270;SDS011;4673;53.458;9.940;2023-02-18T04:52:16;2.27;;;2.27;;
9270;SDS011;4673;53.458;9.940;2023-02-18T04:54:41;2.73;;;2.73;;
9270;SDS011;4673;53.458;9.940;2023-02-18T04:57:07;2.30;;;2.30;;
9270;SDS011;4673;53.458;9.940;2023-02-18T04:59:33;2.90;;;2.90;;
9270;SDS011;4673;53.458;9.940;2023-02-18T05:01:58;2.73;;;2.63;;
9270;SDS011;4673;53.458;9.940;2023-02-18T05:04:24;2.77;;;2.77;;
9270;SDS011;4673;53.458;9.940;2023-02-18T05:06:50;2.50;;;2.50;;
9270;SDS011;4673;53.458;9.940;2023-02-18T05:09:15;2.23;;;2.23;;
9270;SDS011;4673;53.458;9.940;2023-02-18T05:11:41;2.63;;;2.63;;
9270;SDS011;4673;53.458;9.940;2023-02-18T05:14:07;2.70;;;2.70;;
9270;SDS011;4673;53.458;9.940;2023-02-18T05:16:32;1.90;;;1.90;;
9270;SDS011;4673;53.458;9.940;2023-02-18T05:18:58;3.03;;;3.03;;
9270;SDS011;4673;53.458;9.940;2023-02-18T05:21:24;2.33;;;2.33;;
9270;SDS011;4673;53.458;9.940;2023-02-18T05:23:49;1.93;;;1.93;;
9270;SDS011;4673;53.458;9.940;2023-02-18T05:26:15;1.87;;;1.87;;
9270;SDS011;4673;53.458;9.940;2023-02-18T05:28:41;2.37;;;2.37;;
9270;SDS011;4673;53.458;9.940;2023-02-18T05:31:06;2.37;;;2.37;;
9270;SDS011;4673;53.458;9.940;2023-02-18T05:33:32;2.03;;;2.03;;
9270;SDS011;4673;53.458;9.940;2023-02-18T05:35:58;2.13;;;2.13;;
9270;SDS011;4673;53.458;9.940;2023-02-18T05:38:23;2.83;;;2.83;;
9270;SDS011;4673;53.458;9.940;2023-02-18T05:40:49;2.67;;;2.67;;
9270;SDS011;4673;53.458;9.940;2023-02-18T05:43:15;2.27;;;2.27;;
9270;SDS011;4673;53.458;9.940;2023-02-18T05:45:40;2.40;;;2.40;;
9270;SDS011;4673;53.458;9.940;2023-02-18T05:48:06;2.07;;;2.07;;
9270;SDS011;4673;53.458;9.940;2023-02-18T05:50:32;2.10;;;2.10;;
9270;SDS011;4673;53.458;9.940;2023-02-18T05:52:58;1.67;;;1.67;;
9270;SDS011;4673;53.458;9.940;2023-02-18T05:55:23;2.17;;;2.17;;
9270;SDS011;4673;53.458;9.940;2023-02-18T05:57:49;2.60;;;2.60;;
9270;SDS011;4673;53.458;9.940;2023-02-18T06:00:16;2.17;;;2.17;;
9270;SDS011;4673;53.458;9.940;2023-02-18T06:02:42;1.90;;;1.90;;
9270;SDS011;4673;53.458;9.940;2023-02-18T06:05:08;2.20;;;2.20;;
9270;SDS011;4673;53.458;9.940;2023-02-18T06:07:34;1.80;;;1.80;;
9270;SDS011;4673;53.458;9.940;2023-02-18T06:10:00;2.40;;;2.40;;
9270;SDS011;4673;53.458;9.940;2023-02-18T06:12:26;1.90;;;1.90;;
9270;SDS011;4673;53.458;9.940;2023-02-18T06:14:52;2.17;;;2.17;;
9270;SDS011;4673;53.458;9.940;2023-02-18T06:17:17;2.30;;;2.30;;
9270;SDS011;4673;53.458;9.940;2023-02-18T06:19:44;2.33;;;2.33;;
9270;SDS011;4673;53.458;9.940;2023-02-18T06:22:10;2.03;;;2.03;;
9270;SDS011;4673;53.458;9.940;2023-02-18T06:24:35;1.67;;;1.67;;
9270;SDS011;4673;53.458;9.940;2023-02-18T06:27:01;1.90;;;1.90;;
9270;SDS011;4673;53.458;9.940;2023-02-18T06:29:27;2.33;;;2.33;;
9270;SDS011;4673;53.458;9.940;2023-02-18T06:31:56;2.33;;;2.33;;
9270;SDS011;4673;53.458;9.940;2023-02-18T06:34:23;1.97;;;1.97;;
9270;SDS011;4673;53.458;9.940;2023-02-18T06:36:49;2.13;;;2.13;;
9270;SDS011;4673;53.458;9.940;2023-02-18T06:39:14;2.47;;;2.47;;
9270;SDS011;4673;53.458;9.940;2023-02-18T06:41:40;2.07;;;2.07;;
9270;SDS011;4673;53.458;9.940;2023-02-18T06:44:06;2.23;;;2.23;;
9270;SDS011;4673;53.458;9.940;2023-02-18T06:46:32;2.83;;;2.83;;
9270;SDS011;4673;53.458;9.940;2023-02-18T06:48:58;2.27;;;2.27;;
9270;SDS011;4673;53.458;9.940;2023-02-18T06:51:23;2.77;;;2.77;;
9270;SDS011;4673;53.458;9.940;2023-02-18T06:53:49;2.77;;;2.77;;
9270;SDS011;4673;53.458;9.940;2023-02-18T06:56:15;2.10;;;2.10;;
9270;SDS011;4673;53.458;9.940;2023-02-18T06:58:41;2.23;;;2.23;;
9270;SDS011;4673;53.458;9.940;2023-02-18T07:01:07;2.10;;;2.10;;
9270;SDS011;4673;53.458;9.940;2023-02-18T07:03:32;2.67;;;2.67;;
9270;SDS011;4673;53.458;9.940;2023-02-18T07:05:58;2.70;;;2.70;;
9270;SDS011;4673;53.458;9.940;2023-02-18T07:08:24;2.07;;;2.07;;
9270;SDS011;4673;53.458;9.940;2023-02-18T07:10:50;2.23;;;2.23;;
9270;SDS011;4673;53.458;9.940;2023-02-18T07:13:15;2.80;;;2.80;;
9270;SDS011;4673;53.458;9.940;2023-02-18T07:15:41;1.80;;;1.80;;
9270;SDS011;4673;53.458;9.940;2023-02-18T07:18:06;2.50;;;2.50;;
9270;SDS011;4673;53.458;9.940;2023-02-18T07:20:32;2.13;;;2.13;;
9270;SDS011;4673;53.458;9.940;2023-02-18T07:22:58;1.97;;;1.97;;
9270;SDS011;4673;53.458;9.940;2023-02-18T07:25:24;2.63;;;2.63;;
9270;SDS011;4673;53.458;9.940;2023-02-18T07:27:50;2.00;;;2.00;;
9270;SDS011;4673;53.458;9.940;2023-02-18T07:30:17;2.13;;;2.13;;
9270;SDS011;4673;53.458;9.940;2023-02-18T07:32:43;2.33;;;2.33;;
9270;SDS011;4673;53.458;9.940;2023-02-18T07:35:09;1.83;;;1.83;;
9270;SDS011;4673;53.458;9.940;2023-02-18T07:37:37;2.77;;;2.77;;
9270;SDS011;4673;53.458;9.940;2023-02-18T07:40:03;2.17;;;2.17;;
9270;SDS011;4673;53.458;9.940;2023-02-18T07:42:29;2.60;;;2.60;;
9270;SDS011;4673;53.458;9.940;2023-02-18T07:44:54;3.70;;;3.70;;
9270;SDS011;4673;53.458;9.940;2023-02-18T07:47:20;3.17;;;3.17;;
9270;SDS011;4673;53.458;9.940;2023-02-18T07:49:46;3.23;;;3.23;;
9270;SDS011;4673;53.458;9.940;2023-02-18T07:52:12;2.67;;;2.67;;
9270;SDS011;4673;53.458;9.940;2023-02-18T07:54:38;2.67;;;2.67;;
9270;SDS011;4673;53.458;9.940;2023-02-18T07:57:03;2.23;;;2.23;;
9270;SDS011;4673;53.458;9.940;2023-02-18T07:59:29;2.47;;;2.47;;
9270;SDS011;4673;53.458;9.940;2023-02-18T08:01:55;2.27;;;2.27;;
9270;SDS011;4673;53.458;9.940;2023-02-18T08:04:20;2.57;;;2.57;;
9270;SDS011;4673;53.458;9.940;2023-02-18T08:06:47;2.73;;;2.73;;
9270;SDS011;4673;53.458;9.940;2023-02-18T08:09:14;3.20;;;3.20;;
9270;SDS011;4673;53.458;9.940;2023-02-18T08:11:40;3.00;;;3.00;;
9270;SDS011;4673;53.458;9.940;2023-02-18T08:14:06;2.83;;;2.83;;
9270;SDS011;4673;53.458;9.940;2023-02-18T08:16:32;2.80;;;2.80;;
9270;SDS011;4673;53.458;9.940;2023-02-18T08:18:58;2.67;;;2.67;;
9270;SDS011;4673;53.458;9.940;2023-02-18T08:21:25;2.50;;;2.50;;
9270;SDS011;4673;53.458;9.940;2023-02-18T08:23:52;2.33;;;2.33;;
9270;SDS011;4673;53.458;9.940;2023-02-18T08:26:18;2.43;;;2.43;;
9270;SDS011;4673;53.458;9.940;2023-02-18T08:28:44;2.70;;;2.70;;
9270;SDS011;4673;53.458;9.940;2023-02-18T08:31:15;2.17;;;2.17;;
9270;SDS011;4673;53.458;9.940;2023-02-18T08:33:46;2.80;;;2.80;;
9270;SDS011;4673;53.458;9.940;2023-02-18T08:36:12;2.67;;;2.67;;
9270;SDS011;4673;53.458;9.940;2023-02-18T08:38:38;2.60;;;2.60;;
9270;SDS011;4673;53.458;9.940;2023-02-18T08:41:07;2.77;;;2.77;;
9270;SDS011;4673;53.458;9.940;2023-02-18T08:43:33;3.57;;;3.57;;
9270;SDS011;4673;53.458;9.940;2023-02-18T08:45:59;2.93;;;2.93;;
9270;SDS011;4673;53.458;9.940;2023-02-18T08:48:25;2.53;;;2.53;;
9270;SDS011;4673;53.458;9.940;2023-02-18T08:50:51;3.10;;;3.10;;
9270;SDS011;4673;53.458;9.940;2023-02-18T08:53:17;3.23;;;3.23;;
9270;SDS011;4673;53.458;9.940;2023-02-18T08:55:43;2.53;;;2.53;;
9270;SDS011;4673;53.458;9.940;2023-02-18T08:58:09;3.10;;;3.10;;
9270;SDS011;4673;53.458;9.940;2023-02-18T09:00:35;3.37;;;3.37;;
9270;SDS011;4673;53.458;9.940;2023-02-18T09:03:02;3.30;;;3.30;;
9270;SDS011;4673;53.458;9.940;2023-02-18T09:05:27;3.27;;;3.27;;
9270;SDS011;4673;53.458;9.940;2023-02-18T09:07:53;3.90;;;3.90;;
9270;SDS011;4673;53.458;9.940;2023-02-18T09:10:19;3.90;;;3.90;;
9270;SDS011;4673;53.458;9.940;2023-02-18T09:12:44;3.07;;;3.07;;
9270;SDS011;4673;53.458;9.940;2023-02-18T09:15:10;3.40;;;3.40;;
9270;SDS011;4673;53.458;9.940;2023-02-18T09:17:36;4.23;;;4.23;;
9270;SDS011;4673;53.458;9.940;2023-02-18T09:20:01;2.93;;;2.93;;
9270;SDS011;4673;53.458;9.940;2023-02-18T09:22:28;3.07;;;3.07;;
9270;SDS011;4673;53.458;9.940;2023-02-18T09:24:53;3.73;;;3.73;;
9270;SDS011;4673;53.458;9.940;2023-02-18T09:27:19;2.93;;;2.93;;
9270;SDS011;4673;53.458;9.940;2023-02-18T09:29:46;3.10;;;3.10;;
9270;SDS011;4673;53.458;9.940;2023-02-18T09:32:12;3.40;;;3.40;;
9270;SDS011;4673;53.458;9.940;2023-02-18T09:34:37;3.00;;;3.00;;
9270;SDS011;4673;53.458;9.940;2023-02-18T09:37:03;2.93;;;2.93;;
9270;SDS011;4673;53.458;9.940;2023-02-18T09:39:29;2.73;;;2.73;;
9270;SDS011;4673;53.458;9.940;2023-02-18T09:41:56;2.93;;;2.93;;
9270;SDS011;4673;53.458;9.940;2023-02-18T09:44:27;3.13;;;3.13;;
9270;SDS011;4673;53.458;9.940;2023-02-18T09:47:08;2.50;;;2.50;;
9270;SDS011;4673;53.458;9.940;2023-02-18T09:49:43;2.90;;;2.90;;
9270;SDS011;4673;53.458;9.940;2023-02-18T09:52:23;3.20;;;3.20;;
9270;SDS011;4673;53.458;9.940;2023-02-18T09:54:53;3.20;;;3.20;;
9270;SDS011;4673;53.458;9.940;2023-02-18T09:57:24;2.63;;;2.63;;
9270;SDS011;4673;53.458;9.940;2023-02-18T09:59:55;2.97;;;2.97;;
9270;SDS011;4673;53.458;9.940;2023-02-18T10:02:25;3.00;;;3.00;;
9270;SDS011;4673;53.458;9.940;2023-02-18T10:04:52;2.87;;;2.87;;
9270;SDS011;4673;53.458;9.940;2023-02-18T10:07:31;2.43;;;2.43;;
9270;SDS011;4673;53.458;9.940;2023-02-18T10:10:02;2.10;;;2.10;;
9270;SDS011;4673;53.458;9.940;2023-02-18T10:12:56;2.27;;;2.27;;
9270;SDS011;4673;53.458;9.940;2023-02-18T10:15:28;2.43;;;2.43;;
9270;SDS011;4673;53.458;9.940;2023-02-18T10:17:55;2.57;;;2.57;;
9270;SDS011;4673;53.458;9.940;2023-02-18T10:20:23;2.47;;;2.47;;
9270;SDS011;4673;53.458;9.940;2023-02-18T10:22:53;3.00;;;3.00;;
9270;SDS011;4673;53.458;9.940;2023-02-18T10:25:21;2.73;;;2.73;;
9270;SDS011;4673;53.458;9.940;2023-02-18T10:27:49;2.70;;;2.70;;
9270;SDS011;4673;53.458;9.940;2023-02-18T10:32:47;2.80;;;2.80;;
9270;SDS011;4673;53.458;9.940;2023-02-18T10:49:40;3.40;;;3.40;;
9270;SDS011;4673;53.458;9.940;2023-02-18T10:52:19;3.00;;;3.00;;
9270;SDS011;4673;53.458;9.940;2023-02-18T10:54:58;3.50;;;3.50;;
9270;SDS011;4673;53.458;9.940;2023-02-18T10:57:28;3.80;;;3.80;;
9270;SDS011;4673;53.458;9.940;2023-02-18T11:02:22;4.03;;;4.03;;
9270;SDS011;4673;53.458;9.940;2023-02-18T11:04:50;3.47;;;3.47;;
9270;SDS011;4673;53.458;9.940;2023-02-18T11:07:23;3.07;;;3.07;;
9270;SDS011;4673;53.458;9.940;2023-02-18T11:09:54;2.47;;;2.47;;
9270;SDS011;4673;53.458;9.940;2023-02-18T11:12:23;2.50;;;2.50;;
9270;SDS011;4673;53.458;9.940;2023-02-18T11:17:38;1.23;;;1.23;;
9270;SDS011;4673;53.458;9.940;2023-02-18T11:20:26;1.43;;;1.43;;
9270;SDS011;4673;53.458;9.940;2023-02-18T11:22:58;1.07;;;1.07;;
9270;SDS011;4673;53.458;9.940;2023-02-18T11:25:39;1.40;;;1.40;;
9270;SDS011;4673;53.458;9.940;2023-02-18T11:30:41;0.90;;;0.90;;
9270;SDS011;4673;53.458;9.940;2023-02-18T11:33:19;0.93;;;0.93;;
9270;SDS011;4673;53.458;9.940;2023-02-18T11:35:49;1.27;;;1.27;;
9270;SDS011;4673;53.458;9.940;2023-02-18T11:40:55;0.87;;;0.87;;
9270;SDS011;4673;53.458;9.940;2023-02-18T11:43:26;0.60;;;0.60;;
9270;SDS011;4673;53.458;9.940;2023-02-18T11:46:12;0.80;;;0.80;;
9270;SDS011;4673;53.458;9.940;2023-02-18T11:48:39;0.80;;;0.80;;
9270;SDS011;4673;53.458;9.940;2023-02-18T11:51:07;0.80;;;0.80;;
9270;SDS011;4673;53.458;9.940;2023-02-18T11:53:58;1.00;;;1.00;;
9270;SDS011;4673;53.458;9.940;2023-02-18T11:56:27;0.90;;;0.90;;
9270;SDS011;4673;53.458;9.940;2023-02-18T11:58:54;1.30;;;1.30;;
9270;SDS011;4673;53.458;9.940;2023-02-18T12:04:15;0.97;;;0.97;;
9270;SDS011;4673;53.458;9.940;2023-02-18T12:07:24;1.00;;;1.00;;
9270;SDS011;4673;53.458;9.940;2023-02-18T12:09:53;1.00;;;1.00;;
9270;SDS011;4673;53.458;9.940;2023-02-18T12:14:54;0.70;;;0.70;;
9270;SDS011;4673;53.458;9.940;2023-02-18T12:20:14;0.97;;;0.97;;
9270;SDS011;4673;53.458;9.940;2023-02-18T12:22:57;0.70;;;0.70;;
9270;SDS011;4673;53.458;9.940;2023-02-18T12:25:33;0.77;;;0.77;;
9270;SDS011;4673;53.458;9.940;2023-02-18T12:28:09;0.80;;;0.80;;
9270;SDS011;4673;53.458;9.940;2023-02-18T12:33:46;0.90;;;0.90;;
9270;SDS011;4673;53.458;9.940;2023-02-18T12:55:57;1.70;;;1.70;;
9270;SDS011;4673;53.458;9.940;2023-02-18T13:12:14;2.60;;;2.60;;
9270;SDS011;4673;53.458;9.940;2023-02-18T13:15:10;2.50;;;2.50;;
9270;SDS011;4673;53.458;9.940;2023-02-18T13:17:47;2.30;;;2.30;;
9270;SDS011;4673;53.458;9.940;2023-02-18T13:21:15;3.77;;;3.67;;
9270;SDS011;4673;53.458;9.940;2023-02-18T13:23:21;3.13;;;3.13;;
9270;SDS011;4673;53.458;9.940;2023-02-18T13:26:03;3.70;;;3.70;;
9270;SDS011;4673;53.458;9.940;2023-02-18T13:28:47;3.10;;;3.10;;
9270;SDS011;4673;53.458;9.940;2023-02-18T13:34:44;3.50;;;3.50;;
9270;SDS011;4673;53.458;9.940;2023-02-18T13:39:52;3.70;;;3.70;;
9270;SDS011;4673;53.458;9.940;2023-02-18T13:47:35;3.17;;;3.10;;
9270;SDS011;4673;53.458;9.940;2023-02-18T13:56:18;3.63;;;3.63;;
9270;SDS011;4673;53.458;9.940;2023-02-18T13:58:22;3.27;;;3.27;;
9270;SDS011;4673;53.458;9.940;2023-02-18T14:01:03;4.00;;;4.00;;
9270;SDS011;4673;53.458;9.940;2023-02-18T14:06:20;4.03;;;3.93;;
9270;SDS011;4673;53.458;9.940;2023-02-18T14:09:01;4.47;;;4.37;;
9270;SDS011;4673;53.458;9.940;2023-02-18T14:11:40;4.17;;;4.07;;
9270;SDS011;4673;53.458;9.940;2023-02-18T14:14:14;4.40;;;4.30;;
9270;SDS011;4673;53.458;9.940;2023-02-18T14:19:53;4.83;;;4.73;;
9270;SDS011;4673;53.458;9.940;2023-02-18T14:23:04;5.30;;;5.17;;
9270;SDS011;4673;53.458;9.940;2023-02-18T14:27:44;5.80;;;5.70;;
9270;SDS011;4673;53.458;9.940;2023-02-18T14:30:23;6.20;;;6.10;;
9270;SDS011;4673;53.458;9.940;2023-02-18T14:32:55;5.83;;;5.73;;
9270;SDS011;4673;53.458;9.940;2023-02-18T14:46:11;4.17;;;4.13;;
9270;SDS011;4673;53.458;9.940;2023-02-18T14:51:30;5.60;;;5.50;;
9270;SDS011;4673;53.458;9.940;2023-02-18T14:54:01;3.77;;;3.77;;
9270;SDS011;4673;53.458;9.940;2023-02-18T14:56:30;4.10;;;4.10;;
9270;SDS011;4673;53.458;9.940;2023-02-18T14:59:02;4.13;;;4.13;;
9270;SDS011;4673;53.458;9.940;2023-02-18T15:01:30;4.00;;;4.00;;
9270;SDS011;4673;53.458;9.940;2023-02-18T15:03:59;3.37;;;3.37;;
9270;SDS011;4673;53.458;9.940;2023-02-18T15:06:35;3.50;;;3.50;;
9270;SDS011;4673;53.458;9.940;2023-02-18T15:09:23;3.13;;;3.13;;
9270;SDS011;4673;53.458;9.940;2023-02-18T15:11:55;3.30;;;3.30;;
9270;SDS011;4673;53.458;9.940;2023-02-18T15:14:38;3.10;;;3.10;;
9270;SDS011;4673;53.458;9.940;2023-02-18T15:17:06;3.60;;;3.60;;
9270;SDS011;4673;53.458;9.940;2023-02-18T15:20:02;3.40;;;3.40;;
9270;SDS011;4673;53.458;9.940;2023-02-18T15:22:30;3.00;;;3.00;;
9270;SDS011;4673;53.458;9.940;2023-02-18T15:24:59;3.47;;;3.47;;
9270;SDS011;4673;53.458;9.940;2023-02-18T15:27:33;3.33;;;3.33;;
9270;SDS011;4673;53.458;9.940;2023-02-18T15:32:53;3.47;;;3.47;;
9270;SDS011;4673;53.458;9.940;2023-02-18T15:35:21;3.30;;;3.30;;
9270;SDS011;4673;53.458;9.940;2023-02-18T15:37:51;4.20;;;4.20;;
9270;SDS011;4673;53.458;9.940;2023-02-18T15:40:18;3.20;;;3.20;;
9270;SDS011;4673;53.458;9.940;2023-02-18T15:42:47;3.33;;;3.33;;
9270;SDS011;4673;53.458;9.940;2023-02-18T15:47:41;3.37;;;3.37;;
9270;SDS011;4673;53.458;9.940;2023-02-18T15:50:14;3.00;;;3.00;;
9270;SDS011;4673;53.458;9.940;2023-02-18T15:52:48;3.27;;;3.27;;
9270;SDS011;4673;53.458;9.940;2023-02-18T15:55:21;3.27;;;3.27;;
9270;SDS011;4673;53.458;9.940;2023-02-18T15:57:58;3.13;;;3.13;;
9270;SDS011;4673;53.458;9.940;2023-02-18T16:00:36;3.50;;;3.50;;
9270;SDS011;4673;53.458;9.940;2023-02-18T16:05:47;3.30;;;3.30;;
9270;SDS011;4673;53.458;9.940;2023-02-18T16:08:23;3.70;;;3.70;;
9270;SDS011;4673;53.458;9.940;2023-02-18T16:11:04;4.53;;;4.53;;
9270;SDS011;4673;53.458;9.940;2023-02-18T16:13:33;4.93;;;4.93;;
9270;SDS011;4673;53.458;9.940;2023-02-18T16:16:00;4.17;;;4.17;;
9270;SDS011;4673;53.458;9.940;2023-02-18T16:18:28;4.50;;;4.50;;
9270;SDS011;4673;53.458;9.940;2023-02-18T16:23:29;4.10;;;4.10;;
9270;SDS011;4673;53.458;9.940;2023-02-18T16:27:01;3.90;;;3.90;;
9270;SDS011;4673;53.458;9.940;2023-02-18T16:29:00;4.03;;;4.03;;
9270;SDS011;4673;53.458;9.940;2023-02-18T16:31:29;4.97;;;4.97;;
9270;SDS011;4673;53.458;9.940;2023-02-18T16:33:54;4.40;;;4.40;;
9270;SDS011;4673;53.458;9.940;2023-02-18T16:36:20;4.40;;;4.40;;
9270;SDS011;4673;53.458;9.940;2023-02-18T16:38:48;4.13;;;4.13;;
9270;SDS011;4673;53.458;9.940;2023-02-18T16:41:14;4.40;;;4.40;;
9270;SDS011;4673;53.458;9.940;2023-02-18T16:43:40;4.20;;;4.20;;
9270;SDS011;4673;53.458;9.940;2023-02-18T16:46:13;4.03;;;4.03;;
9270;SDS011;4673;53.458;9.940;2023-02-18T16:48:50;3.97;;;3.97;;
9270;SDS011;4673;53.458;9.940;2023-02-18T16:51:21;3.60;;;3.60;;
9270;SDS011;4673;53.458;9.940;2023-02-18T16:53:47;2.83;;;2.83;;
9270;SDS011;4673;53.458;9.940;2023-02-18T16:56:17;2.70;;;2.70;;
9270;SDS011;4673;53.458;9.940;2023-02-18T16:58:45;3.27;;;3.27;;
9270;SDS011;4673;53.458;9.940;2023-02-18T17:01:17;2.70;;;2.70;;
9270;SDS011;4673;53.458;9.940;2023-02-18T17:03:50;3.00;;;3.00;;
9270;SDS011;4673;53.458;9.940;2023-02-18T17:06:16;2.83;;;2.83;;
9270;SDS011;4673;53.458;9.940;2023-02-18T17:08:42;3.00;;;3.00;;
9270;SDS011;4673;53.458;9.940;2023-02-18T17:11:14;3.13;;;3.13;;
9270;SDS011;4673;53.458;9.940;2023-02-18T17:13:44;3.00;;;3.00;;
9270;SDS011;4673;53.458;9.940;2023-02-18T17:16:11;3.53;;;3.53;;
9270;SDS011;4673;53.458;9.940;2023-02-18T17:18:37;2.90;;;2.90;;
9270;SDS011;4673;53.458;9.940;2023-02-18T17:21:02;2.90;;;2.90;;
9270;SDS011;4673;53.458;9.940;2023-02-18T17:23:28;3.23;;;3.23;;
9270;SDS011;4673;53.458;9.940;2023-02-18T17:25:54;3.23;;;3.23;;
9270;SDS011;4673;53.458;9.940;2023-02-18T17:28:19;3.30;;;3.30;;
9270;SDS011;4673;53.458;9.940;2023-02-18T17:30:51;2.80;;;2.80;;
9270;SDS011;4673;53.458;9.940;2023-02-18T17:33:20;3.60;;;3.60;;
9270;SDS011;4673;53.458;9.940;2023-02-18T17:35:46;3.03;;;3.03;;
9270;SDS011;4673;53.458;9.940;2023-02-18T17:38:13;3.67;;;3.67;;
9270;SDS011;4673;53.458;9.940;2023-02-18T17:40:40;3.30;;;3.30;;
9270;SDS011;4673;53.458;9.940;2023-02-18T17:43:09;3.00;;;3.00;;
9270;SDS011;4673;53.458;9.940;2023-02-18T17:45:39;3.17;;;3.17;;
9270;SDS011;4673;53.458;9.940;2023-02-18T17:48:15;3.60;;;3.60;;
9270;SDS011;4673;53.458;9.940;2023-02-18T17:50:40;3.97;;;3.97;;
9270;SDS011;4673;53.458;9.940;2023-02-18T17:53:08;3.30;;;3.30;;
9270;SDS011;4673;53.458;9.940;2023-02-18T17:55:37;3.57;;;3.57;;
9270;SDS011;4673;53.458;9.940;2023-02-18T17:58:03;3.90;;;3.90;;
9270;SDS011;4673;53.458;9.940;2023-02-18T18:00:52;3.40;;;3.40;;
9270;SDS011;4673;53.458;9.940;2023-02-18T18:03:19;4.10;;;4.10;;
9270;SDS011;4673;53.458;9.940;2023-02-18T18:05:46;4.47;;;4.47;;
9270;SDS011;4673;53.458;9.940;2023-02-18T18:08:16;3.93;;;3.93;;
9270;SDS011;4673;53.458;9.940;2023-02-18T18:10:46;3.60;;;3.60;;
9270;SDS011;4673;53.458;9.940;2023-02-18T18:13:14;5.57;;;5.57;;
9270;SDS011;4673;53.458;9.940;2023-02-18T18:15:47;4.77;;;4.77;;
9270;SDS011;4673;53.458;9.940;2023-02-18T18:18:12;5.37;;;5.37;;
9270;SDS011;4673;53.458;9.940;2023-02-18T18:20:39;4.87;;;4.87;;